sensor_id;sensor_type;location;lat;lon;timestamp;pressure;altitude;pressure_sealevel;temperature;humidity
26861;BME280;37676;46.956;7.430;2022-07-25T00:02:12;95232.03;;;28.11;44.25
26861;BME280;37676;46.956;7.430;2022-07-25T00:04:37;95234.16;;;28.11;44.49
26861;BME280;37676;46.956;7.430;2022-07-25T00:07:03;95243.47;;;28.11;44.55
26861;BME280;37676;46.956;7.430;2022-07-25T00:09:28;95265.97;;;28.26;44.45
26861;BME280;37676;46.956;7.430;2022-07-25T00:11:53;95260.91;;;28.15;44.39
26861;BME280;37676;46.956;7.430;2022-07-25T00:14:19;95259.72;;;28.18;44.46
26861;BME280;37676;46.956;7.430;2022-07-25T00:16:44;95265.16;;;28.14;44.71
26861;BME280;37676;46.956;7.430;2022-07-25T00:19:09;95260.63;;;28.11;44.72
26861;BME280;37676;46.956;7.430;2022-07-25T00:21:35;95227.94;;;27.84;44.66
26861;BME280;37676;46.956;7.430;2022-07-25T00:24:00;95258.09;;;28.06;44.71
26861;BME280;37676;46.956;7.430;2022-07-25T00:26:25;95090.88;;;26.94;44.87
26861;BME280;37676;46.956;7.430;2022-07-25T00:28:51;95247.13;;;28.02;44.95
26861;BME280;37676;46.956;7.430;2022-07-25T00:31:16;95251.22;;;27.99;45.00
26861;BME280;37676;46.956;7.430;2022-07-25T00:33:41;95099.16;;;26.90;45.06
26861;BME280;37676;46.956;7.430;2022-07-25T00:36:07;95225.00;;;27.72;44.92
26861;BME280;37676;46.956;7.430;2022-07-25T00:38:33;95261.47;;;27.93;45.14
26861;BME280;37676;46.956;7.430;2022-07-25T00:40:58;95250.63;;;27.91;44.91
26861;BME280;37676;46.956;7.430;2022-07-25T00:43:24;95247.75;;;27.91;45.39
26861;BME280;37676;46.956;7.430;2022-07-25T00:45:49;95252.00;;;27.90;45.15
26861;BME280;37676;46.956;7.430;2022-07-25T00:48:14;95246.75;;;27.87;45.40
26861;BME280;37676;46.956;7.430;2022-07-25T00:50:40;95223.81;;;27.66;45.45
26861;BME280;37676;46.956;7.430;2022-07-25T00:53:05;95248.56;;;27.82;45.62
26861;BME280;37676;46.956;7.430;2022-07-25T00:55:31;95252.66;;;27.79;45.53
26861;BME280;37676;46.956;7.430;2022-07-25T00:57:58;95239.56;;;27.76;45.33
26861;BME280;37676;46.956;7.430;2022-07-25T01:00:23;95243.34;;;27.69;45.61
26861;BME280;37676;46.956;7.430;2022-07-25T01:02:49;95227.47;;;27.57;45.73
26861;BME280;37676;46.956;7.430;2022-07-25T01:05:14;95249.06;;;27.69;45.88
26861;BME280;37676;46.956;7.430;2022-07-25T01:07:40;95093.81;;;26.65;45.94
26861;BME280;37676;46.956;7.430;2022-07-25T01:10:06;95219.25;;;27.42;45.96
26861;BME280;37676;46.956;7.430;2022-07-25T01:12:49;95248.53;;;27.61;45.80
26861;BME280;37676;46.956;7.430;2022-07-25T01:15:16;94966.50;;;25.72;45.88
26861;BME280;37676;46.956;7.430;2022-07-25T01:17:42;95236.22;;;27.49;46.03
26861;BME280;37676;46.956;7.430;2022-07-25T01:20:15;95215.63;;;27.41;46.06
26861;BME280;37676;46.956;7.430;2022-07-25T01:22:41;95243.13;;;27.56;46.28
26861;BME280;37676;46.956;7.430;2022-07-25T01:25:07;95188.31;;;27.19;46.25
26861;BME280;37676;46.956;7.430;2022-07-25T01:27:32;95223.66;;;27.33;46.45
26861;BME280;37676;46.956;7.430;2022-07-25T01:29:57;95243.16;;;27.46;46.62
26861;BME280;37676;46.956;7.430;2022-07-25T01:32:23;95245.88;;;27.44;46.70
26861;BME280;37676;46.956;7.430;2022-07-25T01:34:48;95249.94;;;27.41;46.66
26861;BME280;37676;46.956;7.430;2022-07-25T01:37:13;95215.25;;;27.16;46.59
26861;BME280;37676;46.956;7.430;2022-07-25T01:39:38;94946.72;;;25.36;47.10
26861;BME280;37676;46.956;7.430;2022-07-25T01:42:04;95252.22;;;27.33;47.09
26861;BME280;37676;46.956;7.430;2022-07-25T01:44:30;95243.34;;;27.29;46.86
26861;BME280;37676;46.956;7.430;2022-07-25T01:46:55;95240.19;;;27.25;46.95
26861;BME280;37676;46.956;7.430;2022-07-25T01:49:20;95242.88;;;27.23;47.08
26861;BME280;37676;46.956;7.430;2022-07-25T01:51:45;95247.72;;;27.20;47.14
26861;BME280;37676;46.956;7.430;2022-07-25T01:54:11;95255.25;;;27.16;47.30
26861;BME280;37676;46.956;7.430;2022-07-25T01:56:42;95246.81;;;27.18;47.08
26861;BME280;37676;46.956;7.430;2022-07-25T01:59:07;95235.09;;;27.14;47.02
26861;BME280;37676;46.956;7.430;2022-07-25T02:01:32;95227.91;;;27.13;47.15
26861;BME280;37676;46.956;7.430;2022-07-25T02:03:57;95218.88;;;27.07;47.29
26861;BME280;37676;46.956;7.430;2022-07-25T02:06:23;95227.00;;;27.10;47.48
26861;BME280;37676;46.956;7.430;2022-07-25T02:08:48;95068.34;;;26.00;47.63
26861;BME280;37676;46.956;7.430;2022-07-25T02:11:13;95209.16;;;26.91;47.94
26861;BME280;37676;46.956;7.430;2022-07-25T02:13:39;95209.16;;;26.91;48.11
26861;BME280;37676;46.956;7.430;2022-07-25T02:16:04;94995.16;;;25.45;47.87
26861;BME280;37676;46.956;7.430;2022-07-25T02:18:30;95223.59;;;26.93;47.80
26861;BME280;37676;46.956;7.430;2022-07-25T02:20:55;95048.41;;;25.81;48.02
26861;BME280;37676;46.956;7.430;2022-07-25T02:23:20;95219.06;;;26.90;48.15
26861;BME280;37676;46.956;7.430;2022-07-25T02:25:46;95181.69;;;26.67;48.27
26861;BME280;37676;46.956;7.430;2022-07-25T02:28:11;95207.22;;;26.84;48.34
26861;BME280;37676;46.956;7.430;2022-07-25T02:30:37;95096.00;;;26.07;48.51
26861;BME280;37676;46.956;7.430;2022-07-25T02:33:02;95207.66;;;26.80;48.70
26861;BME280;37676;46.956;7.430;2022-07-25T02:35:28;95215.34;;;26.78;48.47
26861;BME280;37676;46.956;7.430;2022-07-25T02:37:53;95125.69;;;26.14;48.80
26861;BME280;37676;46.956;7.430;2022-07-25T02:40:18;95185.75;;;26.54;48.72
26861;BME280;37676;46.956;7.430;2022-07-25T02:42:44;95211.72;;;26.68;48.65
26861;BME280;37676;46.956;7.430;2022-07-25T02:45:09;95136.53;;;26.15;48.74
26861;BME280;37676;46.956;7.430;2022-07-25T02:47:34;95203.00;;;26.66;48.67
26861;BME280;37676;46.956;7.430;2022-07-25T02:50:00;95201.97;;;26.61;49.14
26861;BME280;37676;46.956;7.430;2022-07-25T02:52:26;95188.16;;;26.48;48.73
26861;BME280;37676;46.956;7.430;2022-07-25T02:54:51;95205.28;;;26.58;49.06
26861;BME280;37676;46.956;7.430;2022-07-25T02:57:16;95157.22;;;26.25;48.89
26861;BME280;37676;46.956;7.430;2022-07-25T02:59:42;95195.66;;;26.53;49.22
26861;BME280;37676;46.956;7.430;2022-07-25T03:02:07;95187.25;;;26.45;49.04
26861;BME280;37676;46.956;7.430;2022-07-25T03:04:32;95187.69;;;26.52;49.13
26861;BME280;37676;46.956;7.430;2022-07-25T03:06:58;95181.22;;;26.41;49.25
26861;BME280;37676;46.956;7.430;2022-07-25T03:09:23;95193.09;;;26.48;49.24
26861;BME280;37676;46.956;7.430;2022-07-25T03:11:48;95044.03;;;25.42;49.32
26861;BME280;37676;46.956;7.430;2022-07-25T03:14:15;95193.41;;;26.42;49.38
26861;BME280;37676;46.956;7.430;2022-07-25T03:16:41;95198.22;;;26.39;49.29
26861;BME280;37676;46.956;7.430;2022-07-25T03:19:06;95076.13;;;25.52;49.53
26861;BME280;37676;46.956;7.430;2022-07-25T03:21:35;95203.63;;;26.35;49.68
26861;BME280;37676;46.956;7.430;2022-07-25T03:24:00;95035.44;;;25.23;49.43
26861;BME280;37676;46.956;7.430;2022-07-25T03:26:26;95176.59;;;26.17;49.30
26861;BME280;37676;46.956;7.430;2022-07-25T03:28:51;95190.13;;;26.26;49.43
26861;BME280;37676;46.956;7.430;2022-07-25T03:31:16;95155.09;;;25.88;49.54
26861;BME280;37676;46.956;7.430;2022-07-25T03:33:42;95197.00;;;26.23;49.51
26861;BME280;37676;46.956;7.430;2022-07-25T03:36:07;95165.78;;;26.06;49.32
26861;BME280;37676;46.956;7.430;2022-07-25T03:38:34;95187.09;;;26.15;49.73
26861;BME280;37676;46.956;7.430;2022-07-25T03:41:00;95201.66;;;26.19;49.83
26861;BME280;37676;46.956;7.430;2022-07-25T03:43:25;95187.69;;;26.13;49.83
26861;BME280;37676;46.956;7.430;2022-07-25T03:45:50;95198.66;;;26.17;49.75
26861;BME280;37676;46.956;7.430;2022-07-25T03:48:16;95227.78;;;26.15;49.78
26861;BME280;37676;46.956;7.430;2022-07-25T03:50:41;95176.53;;;25.98;50.05
26861;BME280;37676;46.956;7.430;2022-07-25T03:53:06;95194.59;;;26.10;49.72
26861;BME280;37676;46.956;7.430;2022-07-25T03:55:32;95178.50;;;25.96;49.80
26861;BME280;37676;46.956;7.430;2022-07-25T03:57:57;95203.00;;;26.08;50.08
26861;BME280;37676;46.956;7.430;2022-07-25T04:00:22;95187.84;;;26.06;50.06
26861;BME280;37676;46.956;7.430;2022-07-25T04:02:47;95197.00;;;26.04;49.69
26861;BME280;37676;46.956;7.430;2022-07-25T04:05:13;95201.50;;;26.07;49.87
26861;BME280;37676;46.956;7.430;2022-07-25T04:07:38;95166.94;;;25.84;50.02
26861;BME280;37676;46.956;7.430;2022-07-25T04:10:04;95200.41;;;26.03;50.08
26861;BME280;37676;46.956;7.430;2022-07-25T04:12:30;95209.72;;;26.03;50.32
26861;BME280;37676;46.956;7.430;2022-07-25T04:14:55;95203.84;;;26.01;49.94
26861;BME280;37676;46.956;7.430;2022-07-25T04:17:21;95051.97;;;24.88;50.33
26861;BME280;37676;46.956;7.430;2022-07-25T04:19:46;95199.34;;;25.98;50.31
26861;BME280;37676;46.956;7.430;2022-07-25T04:22:11;95198.44;;;25.96;50.03
26861;BME280;37676;46.956;7.430;2022-07-25T04:24:37;95194.88;;;25.95;50.09
26861;BME280;37676;46.956;7.430;2022-07-25T04:27:02;95194.88;;;25.95;50.27
26861;BME280;37676;46.956;7.430;2022-07-25T04:29:27;95203.41;;;25.95;50.29
26861;BME280;37676;46.956;7.430;2022-07-25T04:31:53;95206.25;;;25.95;50.35
26861;BME280;37676;46.956;7.430;2022-07-25T04:34:18;95198.28;;;25.94;50.19
26861;BME280;37676;46.956;7.430;2022-07-25T04:36:44;95003.47;;;24.60;50.37
26861;BME280;37676;46.956;7.430;2022-07-25T04:39:09;95168.38;;;25.66;50.23
26861;BME280;37676;46.956;7.430;2022-07-25T04:41:34;95197.56;;;25.93;50.58
26861;BME280;37676;46.956;7.430;2022-07-25T04:44:00;95083.19;;;25.05;50.65
26861;BME280;37676;46.956;7.430;2022-07-25T04:46:25;95199.03;;;25.94;50.25
26861;BME280;37676;46.956;7.430;2022-07-25T04:48:50;95197.84;;;25.97;50.77
26861;BME280;37676;46.956;7.430;2022-07-25T04:51:16;95199.50;;;26.00;50.90
26861;BME280;37676;46.956;7.430;2022-07-25T04:53:42;95135.69;;;25.58;50.92
26861;BME280;37676;46.956;7.430;2022-07-25T04:56:08;95179.03;;;25.75;51.04
26861;BME280;37676;46.956;7.430;2022-07-25T04:58:33;95201.00;;;26.01;50.88
26861;BME280;37676;46.956;7.430;2022-07-25T05:00:59;95141.97;;;25.56;50.66
26861;BME280;37676;46.956;7.430;2022-07-25T05:03:24;95176.50;;;25.79;50.93
26861;BME280;37676;46.956;7.430;2022-07-25T05:05:50;95201.44;;;25.98;50.74
26861;BME280;37676;46.956;7.430;2022-07-25T05:08:15;95200.84;;;25.99;50.94
26861;BME280;37676;46.956;7.430;2022-07-25T05:10:41;95180.13;;;25.89;50.91
26861;BME280;37676;46.956;7.430;2022-07-25T05:13:07;95022.44;;;24.84;51.18
26861;BME280;37676;46.956;7.430;2022-07-25T05:15:32;95023.94;;;24.85;50.97
26861;BME280;37676;46.956;7.430;2022-07-25T05:17:58;94904.47;;;24.03;51.15
26861;BME280;37676;46.956;7.430;2022-07-25T05:20:23;95187.78;;;25.96;51.13
26861;BME280;37676;46.956;7.430;2022-07-25T05:22:49;95207.97;;;26.08;51.10
26861;BME280;37676;46.956;7.430;2022-07-25T05:25:14;95201.66;;;26.09;50.85
26861;BME280;37676;46.956;7.430;2022-07-25T05:27:40;95043.94;;;25.04;50.94
26861;BME280;37676;46.956;7.430;2022-07-25T05:30:07;95207.06;;;26.15;50.94
26861;BME280;37676;46.956;7.430;2022-07-25T05:32:33;95204.50;;;26.09;51.26
26861;BME280;37676;46.956;7.430;2022-07-25T05:34:59;95068.09;;;25.22;51.08
26861;BME280;37676;46.956;7.430;2022-07-25T05:37:24;95210.94;;;26.19;51.61
26861;BME280;37676;46.956;7.430;2022-07-25T05:39:50;95201.34;;;26.15;51.25
26861;BME280;37676;46.956;7.430;2022-07-25T05:42:15;95208.88;;;26.20;51.33
26861;BME280;37676;46.956;7.430;2022-07-25T05:44:40;95075.97;;;25.40;51.22
26861;BME280;37676;46.956;7.430;2022-07-25T05:47:10;95059.47;;;25.39;51.48
26861;BME280;37676;46.956;7.430;2022-07-25T05:49:36;95202.09;;;26.34;51.38
26861;BME280;37676;46.956;7.430;2022-07-25T05:52:02;95066.06;;;25.51;51.40
26861;BME280;37676;46.956;7.430;2022-07-25T05:54:28;95205.28;;;26.48;51.52
26861;BME280;37676;46.956;7.430;2022-07-25T05:56:53;95176.13;;;26.30;51.57
26861;BME280;37676;46.956;7.430;2022-07-25T05:59:18;95207.81;;;26.54;51.56
26861;BME280;37676;46.956;7.430;2022-07-25T06:01:43;95213.69;;;26.56;51.45
26861;BME280;37676;46.956;7.430;2022-07-25T06:04:09;95203.03;;;26.47;51.46
26861;BME280;37676;46.956;7.430;2022-07-25T06:06:34;95213.69;;;26.56;51.16
26861;BME280;37676;46.956;7.430;2022-07-25T06:09:00;95190.25;;;26.48;51.38
26861;BME280;37676;46.956;7.430;2022-07-25T06:11:25;95204.06;;;26.61;51.13
26861;BME280;37676;46.956;7.430;2022-07-25T06:13:54;95205.28;;;26.67;51.34
26861;BME280;37676;46.956;7.430;2022-07-25T06:16:20;95040.88;;;25.57;51.43
26861;BME280;37676;46.956;7.430;2022-07-25T06:18:45;95194.59;;;26.68;51.31
26861;BME280;37676;46.956;7.430;2022-07-25T06:21:10;95200.28;;;26.68;51.32
26861;BME280;37676;46.956;7.430;2022-07-25T06:23:36;95004.00;;;25.40;51.37
26861;BME280;37676;46.956;7.430;2022-07-25T06:26:01;95186.31;;;26.62;51.12
26861;BME280;37676;46.956;7.430;2022-07-25T06:28:27;94973.22;;;25.29;51.02
26861;BME280;37676;46.956;7.430;2022-07-25T06:30:52;95180.78;;;26.74;51.22
26861;BME280;37676;46.956;7.430;2022-07-25T06:33:18;95171.44;;;26.64;51.21
26861;BME280;37676;46.956;7.430;2022-07-25T06:35:43;95186.78;;;26.78;51.11
26861;BME280;37676;46.956;7.430;2022-07-25T06:38:08;95182.56;;;26.79;51.26
26861;BME280;37676;46.956;7.430;2022-07-25T06:40:34;95193.38;;;26.80;51.31
26861;BME280;37676;46.956;7.430;2022-07-25T06:42:59;95163.19;;;26.68;51.05
26861;BME280;37676;46.956;7.430;2022-07-25T06:45:24;95177.47;;;26.77;50.85
26861;BME280;37676;46.956;7.430;2022-07-25T06:47:50;95185.88;;;26.85;51.27
26861;BME280;37676;46.956;7.430;2022-07-25T06:50:17;95186.94;;;26.89;50.85
26861;BME280;37676;46.956;7.430;2022-07-25T06:52:43;95197.88;;;26.93;50.76
26861;BME280;37676;46.956;7.430;2022-07-25T06:55:09;95022.91;;;25.83;51.03
26861;BME280;37676;46.956;7.430;2022-07-25T06:57:35;95192.75;;;27.01;51.15
26861;BME280;37676;46.956;7.430;2022-07-25T07:00:01;95190.19;;;27.05;50.77
26861;BME280;37676;46.956;7.430;2022-07-25T07:02:29;95187.63;;;27.09;51.01
26861;BME280;37676;46.956;7.430;2022-07-25T07:04:55;95143.06;;;26.85;50.70
26861;BME280;37676;46.956;7.430;2022-07-25T07:07:20;95187.16;;;27.12;50.59
26861;BME280;37676;46.956;7.430;2022-07-25T07:09:45;95178.88;;;27.16;50.42
26861;BME280;37676;46.956;7.430;2022-07-25T07:12:11;95153.06;;;27.05;49.93
26861;BME280;37676;46.956;7.430;2022-07-25T07:14:36;95181.56;;;27.24;50.06
26861;BME280;37676;46.956;7.430;2022-07-25T07:17:02;95132.63;;;26.99;49.93
26861;BME280;37676;46.956;7.430;2022-07-25T07:19:28;95180.47;;;27.29;49.49
26861;BME280;37676;46.956;7.430;2022-07-25T07:21:53;95176.44;;;27.32;49.45
26861;BME280;37676;46.956;7.430;2022-07-25T07:24:19;95188.91;;;27.36;49.53
26861;BME280;37676;46.956;7.430;2022-07-25T07:26:44;95178.50;;;27.41;49.75
26861;BME280;37676;46.956;7.430;2022-07-25T07:29:09;94989.25;;;26.10;49.79
26861;BME280;37676;46.956;7.430;2022-07-25T07:31:35;95179.22;;;27.51;50.09
26861;BME280;37676;46.956;7.430;2022-07-25T07:34:00;95113.06;;;27.05;49.63
26861;BME280;37676;46.956;7.430;2022-07-25T07:36:27;95186.28;;;27.50;49.04
26861;BME280;37676;46.956;7.430;2022-07-25T07:38:52;95156.09;;;27.37;49.17
26861;BME280;37676;46.956;7.430;2022-07-25T07:41:18;95181.88;;;27.59;49.34
26861;BME280;37676;46.956;7.430;2022-07-25T07:43:44;95180.06;;;27.63;49.74
26861;BME280;37676;46.956;7.430;2022-07-25T07:46:09;95183.19;;;27.67;49.62
26861;BME280;37676;46.956;7.430;2022-07-25T07:48:35;95020.66;;;26.60;49.52
26861;BME280;37676;46.956;7.430;2022-07-25T07:51:00;95183.47;;;27.71;48.92
26861;BME280;37676;46.956;7.430;2022-07-25T07:53:26;95174.41;;;27.75;48.76
26861;BME280;37676;46.956;7.430;2022-07-25T07:56:10;95183.47;;;27.71;49.29
26861;BME280;37676;46.956;7.430;2022-07-25T07:58:36;94860.91;;;25.70;48.95
26861;BME280;37676;46.956;7.430;2022-07-25T08:01:02;95122.66;;;27.50;49.28
26861;BME280;37676;46.956;7.430;2022-07-25T08:03:27;95179.00;;;27.89;48.73
26861;BME280;37676;46.956;7.430;2022-07-25T08:05:52;95174.91;;;27.92;48.85
26861;BME280;37676;46.956;7.430;2022-07-25T08:08:18;95132.47;;;27.68;48.71
26861;BME280;37676;46.956;7.430;2022-07-25T08:10:45;95132.81;;;27.62;48.11
26861;BME280;37676;46.956;7.430;2022-07-25T08:13:26;95158.13;;;28.08;48.06
26861;BME280;37676;46.956;7.430;2022-07-25T08:15:55;95154.13;;;28.01;48.18
26861;BME280;37676;46.956;7.430;2022-07-25T08:18:25;95142.41;;;27.97;47.93
26861;BME280;37676;46.956;7.430;2022-07-25T08:20:51;95173.88;;;28.18;47.91
26861;BME280;37676;46.956;7.430;2022-07-25T08:23:17;94868.38;;;26.25;47.81
26861;BME280;37676;46.956;7.430;2022-07-25T08:25:44;95149.94;;;28.14;47.34
26861;BME280;37676;46.956;7.430;2022-07-25T08:28:09;95155.47;;;28.21;47.34
26861;BME280;37676;46.956;7.430;2022-07-25T08:30:36;95170.56;;;28.33;47.78
26861;BME280;37676;46.956;7.430;2022-07-25T08:33:05;95163.34;;;28.32;47.43
26861;BME280;37676;46.956;7.430;2022-07-25T08:35:32;95171.19;;;28.32;46.82
26861;BME280;37676;46.956;7.430;2022-07-25T08:38:00;95175.59;;;28.45;46.10
26861;BME280;37676;46.956;7.430;2022-07-25T08:40:27;95168.78;;;28.50;45.68
26861;BME280;37676;46.956;7.430;2022-07-25T08:42:54;95162.19;;;28.47;45.19
26861;BME280;37676;46.956;7.430;2022-07-25T08:45:20;95152.34;;;28.50;45.08
26861;BME280;37676;46.956;7.430;2022-07-25T08:47:48;95167.50;;;28.62;45.23
26861;BME280;37676;46.956;7.430;2022-07-25T08:50:17;95149.16;;;28.56;45.31
26861;BME280;37676;46.956;7.430;2022-07-25T08:52:44;95165.91;;;28.71;45.25
26861;BME280;37676;46.956;7.430;2022-07-25T08:55:13;95165.53;;;28.76;44.75
26861;BME280;37676;46.956;7.430;2022-07-25T08:57:40;95148.72;;;28.71;44.08
26861;BME280;37676;46.956;7.430;2022-07-25T09:00:09;95172.66;;;28.87;43.88
26861;BME280;37676;46.956;7.430;2022-07-25T09:02:36;95180.16;;;28.92;43.60
26861;BME280;37676;46.956;7.430;2022-07-25T09:05:01;95168.84;;;28.94;43.27
26861;BME280;37676;46.956;7.430;2022-07-25T09:07:40;95169.84;;;28.98;43.46
26861;BME280;37676;46.956;7.430;2022-07-25T09:10:16;95026.53;;;28.08;43.73
26861;BME280;37676;46.956;7.430;2022-07-25T09:12:56;95126.34;;;28.79;44.24
26861;BME280;37676;46.956;7.430;2022-07-25T09:15:27;95164.56;;;29.16;43.82
26861;BME280;37676;46.956;7.430;2022-07-25T09:17:55;95167.69;;;29.20;44.05
26861;BME280;37676;46.956;7.430;2022-07-25T09:20:21;95135.34;;;29.08;43.91
26861;BME280;37676;46.956;7.430;2022-07-25T09:22:47;95154.72;;;29.19;43.92
26861;BME280;37676;46.956;7.430;2022-07-25T09:25:39;95165.69;;;29.34;44.24
26861;BME280;37676;46.956;7.430;2022-07-25T09:30:40;95188.16;;;29.49;43.73
26861;BME280;37676;46.956;7.430;2022-07-25T09:33:05;95167.19;;;29.58;43.31
26861;BME280;37676;46.956;7.430;2022-07-25T09:35:32;95159.84;;;29.67;42.93
26861;BME280;37676;46.956;7.430;2022-07-25T09:38:13;95157.38;;;29.73;43.13
26861;BME280;37676;46.956;7.430;2022-07-25T09:40:38;95152.91;;;29.70;43.02
26861;BME280;37676;46.956;7.430;2022-07-25T09:43:04;95156.09;;;29.87;42.91
26861;BME280;37676;46.956;7.430;2022-07-25T09:45:30;95158.09;;;29.96;42.70
26861;BME280;37676;46.956;7.430;2022-07-25T09:48:01;95157.31;;;30.07;42.43
26861;BME280;37676;46.956;7.430;2022-07-25T09:50:30;95159.03;;;30.12;42.65
26861;BME280;37676;46.956;7.430;2022-07-25T09:52:58;95150.56;;;30.14;42.78
26861;BME280;37676;46.956;7.430;2022-07-25T09:55:25;95149.91;;;30.28;42.16
26861;BME280;37676;46.956;7.430;2022-07-25T09:57:50;95153.16;;;30.34;42.59
26861;BME280;37676;46.956;7.430;2022-07-25T10:00:24;95161.50;;;30.41;42.59
26861;BME280;37676;46.956;7.430;2022-07-25T10:05:29;95138.50;;;30.53;42.31
26861;BME280;37676;46.956;7.430;2022-07-25T10:07:55;95141.94;;;30.63;42.59
26861;BME280;37676;46.956;7.430;2022-07-25T10:10:28;95130.94;;;30.59;42.08
26861;BME280;37676;46.956;7.430;2022-07-25T10:13:09;95123.66;;;30.70;41.98
26861;BME280;37676;46.956;7.430;2022-07-25T10:15:42;95062.16;;;30.36;41.14
26861;BME280;37676;46.956;7.430;2022-07-25T10:18:08;95134.13;;;31.02;41.55
26861;BME280;37676;46.956;7.430;2022-07-25T10:20:34;95148.44;;;31.13;40.29
26861;BME280;37676;46.956;7.430;2022-07-25T10:23:00;95136.84;;;31.25;40.67
26861;BME280;37676;46.956;7.430;2022-07-25T10:25:25;95127.41;;;31.36;40.04
26861;BME280;37676;46.956;7.430;2022-07-25T10:27:54;95123.38;;;31.41;39.87
26861;BME280;37676;46.956;7.430;2022-07-25T10:30:27;95087.00;;;31.34;39.65
26861;BME280;37676;46.956;7.430;2022-07-25T10:32:59;95114.44;;;31.62;39.39
26861;BME280;37676;46.956;7.430;2022-07-25T10:35:26;95119.66;;;31.79;39.31
26861;BME280;37676;46.956;7.430;2022-07-25T10:37:54;95120.22;;;31.89;38.65
26861;BME280;37676;46.956;7.430;2022-07-25T10:40:40;95113.69;;;32.02;38.74
26861;BME280;37676;46.956;7.430;2022-07-25T10:43:16;95118.56;;;32.13;37.96
26861;BME280;37676;46.956;7.430;2022-07-25T10:45:48;95107.69;;;32.26;37.79
26861;BME280;37676;46.956;7.430;2022-07-25T10:48:29;95109.03;;;32.38;38.02
26861;BME280;37676;46.956;7.430;2022-07-25T10:51:00;95072.81;;;32.20;36.11
26861;BME280;37676;46.956;7.430;2022-07-25T10:53:47;95100.56;;;32.56;35.01
26861;BME280;37676;46.956;7.430;2022-07-25T10:56:23;95098.19;;;32.66;34.64
26861;BME280;37676;46.956;7.430;2022-07-25T10:58:56;95090.06;;;32.76;34.06
26861;BME280;37676;46.956;7.430;2022-07-25T11:01:29;95094.50;;;32.79;34.84
26861;BME280;37676;46.956;7.430;2022-07-25T11:04:00;95083.66;;;32.93;34.52
26861;BME280;37676;46.956;7.430;2022-07-25T11:06:37;95087.06;;;33.03;34.29
26861;BME280;37676;46.956;7.430;2022-07-25T11:09:13;95085.94;;;33.10;33.71
26861;BME280;37676;46.956;7.430;2022-07-25T11:11:39;95081.94;;;33.17;33.72
26861;BME280;37676;46.956;7.430;2022-07-25T11:17:16;95079.88;;;33.35;33.23
26861;BME280;37676;46.956;7.430;2022-07-25T11:19:57;95062.31;;;33.29;32.42
26861;BME280;37676;46.956;7.430;2022-07-25T11:22:23;95078.97;;;33.46;32.36
26861;BME280;37676;46.956;7.430;2022-07-25T11:24:49;94971.59;;;32.85;32.07
26861;BME280;37676;46.956;7.430;2022-07-25T11:29:50;95074.88;;;33.67;31.85
26861;BME280;37676;46.956;7.430;2022-07-25T11:32:16;95062.94;;;33.74;32.13
26861;BME280;37676;46.956;7.430;2022-07-25T11:34:45;95055.88;;;33.77;30.63
26861;BME280;37676;46.956;7.430;2022-07-25T11:37:12;95067.66;;;33.83;30.22
26861;BME280;37676;46.956;7.430;2022-07-25T11:39:39;95028.47;;;33.78;30.57
26861;BME280;37676;46.956;7.430;2022-07-25T11:42:07;95053.78;;;33.95;31.07
26861;BME280;37676;46.956;7.430;2022-07-25T11:44:50;95055.28;;;33.96;30.05
26861;BME280;37676;46.956;7.430;2022-07-25T11:47:27;95039.34;;;33.95;30.09
26861;BME280;37676;46.956;7.430;2022-07-25T11:49:54;95045.38;;;34.02;30.02
26861;BME280;37676;46.956;7.430;2022-07-25T11:52:24;95052.06;;;34.06;30.04
26861;BME280;37676;46.956;7.430;2022-07-25T11:55:04;95046.47;;;34.10;30.25
26861;BME280;37676;46.956;7.430;2022-07-25T11:57:33;95008.72;;;33.88;30.85
26861;BME280;37676;46.956;7.430;2022-07-25T12:00:00;95043.09;;;34.16;30.62
26861;BME280;37676;46.956;7.430;2022-07-25T12:02:31;95048.31;;;34.19;31.17
26861;BME280;37676;46.956;7.430;2022-07-25T12:05:05;95046.25;;;34.22;30.71
26861;BME280;37676;46.956;7.430;2022-07-25T12:08:06;95029.66;;;34.22;30.09
26861;BME280;37676;46.956;7.430;2022-07-25T12:10:35;95027.50;;;34.23;29.96
26861;BME280;37676;46.956;7.430;2022-07-25T12:13:02;95023.19;;;34.24;29.94
26861;BME280;37676;46.956;7.430;2022-07-25T12:15:31;95029.06;;;34.26;30.31
26861;BME280;37676;46.956;7.430;2022-07-25T12:17:57;94964.91;;;33.76;30.19
26861;BME280;37676;46.956;7.430;2022-07-25T12:20:27;95026.25;;;34.28;30.41
26861;BME280;37676;46.956;7.430;2022-07-25T12:22:55;94952.09;;;33.81;30.51
26861;BME280;37676;46.956;7.430;2022-07-25T12:25:21;94999.69;;;34.14;30.25
26861;BME280;37676;46.956;7.430;2022-07-25T12:27:47;94955.25;;;33.87;30.81
26861;BME280;37676;46.956;7.430;2022-07-25T12:30:13;95008.75;;;34.24;30.89
26861;BME280;37676;46.956;7.430;2022-07-25T12:32:39;95006.44;;;34.20;30.75
26861;BME280;37676;46.956;7.430;2022-07-25T12:35:07;95007.13;;;34.19;30.65
26861;BME280;37676;46.956;7.430;2022-07-25T12:37:33;95008.44;;;34.16;30.54
26861;BME280;37676;46.956;7.430;2022-07-25T12:39:59;94996.91;;;34.16;30.72
26861;BME280;37676;46.956;7.430;2022-07-25T12:42:25;94873.34;;;33.28;30.92
26861;BME280;37676;46.956;7.430;2022-07-25T12:44:51;95012.88;;;34.19;30.55
26861;BME280;37676;46.956;7.430;2022-07-25T12:47:16;94993.44;;;34.19;30.24
26861;BME280;37676;46.956;7.430;2022-07-25T12:49:42;94992.75;;;34.21;30.41
26861;BME280;37676;46.956;7.430;2022-07-25T12:52:07;94994.25;;;34.22;30.06
26861;BME280;37676;46.956;7.430;2022-07-25T12:54:33;94984.25;;;34.25;30.12
26861;BME280;37676;46.956;7.430;2022-07-25T12:56:58;94984.44;;;34.29;30.31
26861;BME280;37676;46.956;7.430;2022-07-25T12:59:23;94988.88;;;34.32;30.70
26861;BME280;37676;46.956;7.430;2022-07-25T13:01:49;94973.97;;;34.20;29.99
26861;BME280;37676;46.956;7.430;2022-07-25T13:04:14;94987.50;;;34.33;29.79
26861;BME280;37676;46.956;7.430;2022-07-25T13:06:39;94977.41;;;34.34;30.27
26861;BME280;37676;46.956;7.430;2022-07-25T13:09:05;94967.19;;;34.31;29.68
26861;BME280;37676;46.956;7.430;2022-07-25T13:11:31;94971.63;;;34.34;30.30